Time;durP1;ratioP1;P1;durP2;ratioP2;P2;SDS_P1;SDS_P2;PMS_P1;PMS_P2;Temp;Humidity;BMP_temperature;BMP_pressure;BME280_temperature;BME280_humidity;BME280_pressure;Samples;Min_cycle;Max_cycle;Signal;HPM_P1;HPM_P2
2023/03/19 00:02:18;;;;;;;93.50;49.80;;;;;;;7.12;52.38;99198.42;223598;183;138275;-72
2023/03/19 00:07:23;;;;;;;89.50;47.00;;;;;;;7.05;52.52;99199.98;223588;182;136861;-72
2023/03/19 00:12:26;;;;;;;92.10;48.60;;;;;;;7.01;52.98;99203.17;223557;183;148282;-72
2023/03/19 00:17:31;;;;;;;87.90;47.00;;;;;;;6.95;52.84;99203.95;223605;182;138371;-72
2023/03/19 00:22:34;;;;;;;92.70;48.10;;;;;;;6.88;53.00;99202.30;223630;183;136640;-72
2023/03/19 00:27:37;;;;;;;92.40;48.10;;;;;;;6.83;53.24;99204.45;223648;183;147665;-71
2023/03/19 00:32:41;;;;;;;82.70;45.80;;;;;;;6.77;53.54;99211.77;223566;183;139185;-72
2023/03/19 00:37:44;;;;;;;93.60;48.00;;;;;;;6.68;53.75;99211.67;223697;182;137502;-72
2023/03/19 00:42:48;;;;;;;97.10;49.20;;;;;;;6.63;53.65;99211.67;223706;182;147441;-72
2023/03/19 00:47:51;;;;;;;87.00;48.10;;;;;;;6.59;53.83;99213.81;223671;183;139108;-72
2023/03/19 00:52:55;;;;;;;95.50;49.50;;;;;;;6.54;54.13;99211.55;223643;182;141116;-71
2023/03/19 00:57:59;;;;;;;91.30;48.50;;;;;;;6.52;54.26;99207.39;223542;183;147147;-71
2023/03/19 01:03:05;;;;;;;89.40;48.50;;;;;;;6.41;53.74;99203.45;222884;182;138015;-73
2023/03/19 01:08:09;;;;;;;92.90;45.40;;;;;;;6.23;53.86;99198.63;223485;182;140067;-73
2023/03/19 01:13:13;;;;;;;75.50;40.70;;;;;;;6.13;54.35;99194.76;223651;182;147165;-73
2023/03/19 01:18:16;;;;;;;87.10;46.00;;;;;;;6.13;54.73;99191.77;222962;183;140295;-72
2023/03/19 01:23:20;;;;;;;79.20;45.50;;;;;;;6.08;54.90;99190.06;223646;182;137717;-72
2023/03/19 01:28:24;;;;;;;74.20;43.30;;;;;;;5.93;54.96;99185.91;223563;183;146777;-73
2023/03/19 01:33:28;;;;;;;86.20;44.30;;;;;;;5.82;55.03;99191.09;223625;181;138425;-74
2023/03/19 01:38:37;;;;;;;77.70;43.30;;;;;;;5.75;55.22;99194.18;223596;183;137195;-74
2023/03/19 01:43:49;;;;;;;88.60;45.00;;;;;;;5.67;55.29;99199.09;223575;183;147492;-74
2023/03/19 01:49:21;;;;;;;82.40;43.80;;;;;;;5.62;55.32;99200.83;223622;182;138806;-72
2023/03/19 01:54:31;;;;;;;78.50;43.00;;;;;;;5.59;55.42;99204.85;223733;182;137498;-73
2023/03/19 01:59:56;;;;;;;84.80;41.90;;;;;;;5.51;55.71;99195.83;223572;182;147996;-72
2023/03/19 02:05:36;;;;;;;76.80;42.00;;;;;;;5.45;55.56;99196.91;223534;183;139768;-73
2023/03/19 02:10:45;;;;;;;85.40;43.20;;;;;;;5.42;55.82;99199.50;223730;183;136572;-73
2023/03/19 02:15:49;;;;;;;;;;;;;;;5.37;56.00;99192.88;223668;183;148491;-73
2023/03/19 02:21:04;;;;;;;80.80;43.50;;;;;;;5.32;56.25;99199.38;223570;182;139028;-73
2023/03/19 02:26:11;;;;;;;79.20;42.80;;;;;;;5.24;56.29;99197.58;223627;182;137484;-74
2023/03/19 02:31:17;;;;;;;79.00;42.20;;;;;;;5.19;56.41;99200.22;223645;182;147224;-73
2023/03/19 02:36:21;;;;;;;79.10;42.00;;;;;;;5.15;56.41;99202.46;222446;182;138509;-73
2023/03/19 02:41:25;;;;;;;74.10;39.60;;;;;;;5.13;56.20;99207.82;223698;182;136783;-72
2023/03/19 02:46:29;;;;;;;81.60;41.10;;;;;;;5.08;56.16;99212.04;223902;183;148684;-73
2023/03/19 02:51:33;;;;;;;69.80;40.80;;;;;;;4.97;56.39;99220.36;223691;183;139636;-72
2023/03/19 02:56:37;;;;;;;74.00;40.60;;;;;;;4.89;56.37;99225.05;223673;183;136557;-72
2023/03/19 03:01:40;;;;;;;73.60;39.80;;;;;;;4.84;56.62;99225.95;223494;183;147379;-73
2023/03/19 03:06:44;;;;;;;70.50;39.70;;;;;;;4.79;56.63;99225.95;223687;183;138445;-73
2023/03/19 03:11:48;;;;;;;68.20;39.60;;;;;;;4.74;56.77;99227.70;223676;182;137150;-72
2023/03/19 03:16:52;;;;;;;76.80;39.70;;;;;;;4.67;56.81;99226.73;223689;182;147129;-73
2023/03/19 03:21:55;;;;;;;68.80;39.40;;;;;;;4.62;57.13;99228.11;223640;182;138760;-72
2023/03/19 03:26:58;;;;;;;70.90;39.00;;;;;;;4.61;57.38;99230.29;223598;182;139972;-72
2023/03/19 03:32:02;;;;;;;69.10;38.70;;;;;;;4.65;57.65;99224.35;223616;182;147914;-73
2023/03/19 03:37:06;;;;;;;72.60;37.90;;;;;;;4.62;57.59;99220.23;223536;183;139275;-73
2023/03/19 03:42:09;;;;;;;71.60;38.70;;;;;;;4.60;57.81;99223.11;223583;183;141082;-72
2023/03/19 03:47:16;;;;;;;71.20;37.00;;;;;;;4.56;57.74;99225.69;223695;182;149086;-72
2023/03/19 03:52:21;;;;;;;71.40;37.70;;;;;;;4.49;57.69;99227.70;223548;182;139077;-73
2023/03/19 03:57:26;;;;;;;71.20;39.20;;;;;;;4.48;57.63;99235.80;223603;183;136778;-73
2023/03/19 04:02:30;;;;;;;69.30;38.60;;;;;;;4.41;57.40;99239.55;223546;183;147661;-73
2023/03/19 04:07:34;;;;;;;71.60;38.90;;;;;;;4.38;57.68;99242.13;223595;183;138522;-73
2023/03/19 04:12:38;;;;;;;77.60;38.90;;;;;;;4.28;57.61;99244.73;223531;182;136913;-73
2023/03/19 04:17:42;;;;;;;76.60;37.90;;;;;;;4.26;58.00;99246.72;223705;182;147104;-73
2023/03/19 04:22:45;;;;;;;70.50;37.80;;;;;;;4.30;58.17;99243.80;223617;183;138591;-73
2023/03/19 04:27:49;;;;;;;71.20;37.70;;;;;;;4.25;58.04;99248.52;223669;183;136706;-73
2023/03/19 04:32:52;;;;;;;68.90;35.90;;;;;;;4.22;58.07;99246.51;223701;183;147603;-73
2023/03/19 04:37:56;;;;;;;67.50;35.50;;;;;;;4.15;58.26;99245.00;223669;183;138300;-73
2023/03/19 04:42:59;;;;;;;66.00;36.60;;;;;;;4.08;58.20;99241.70;223621;183;136618;-74
2023/03/19 04:48:12;;;;;;;68.50;37.30;;;;;;;4.04;58.23;99242.36;223643;182;147887;-73
2023/03/19 04:53:16;;;;;;;65.80;36.50;;;;;;;3.99;58.19;99240.39;223719;183;139889;-73
2023/03/19 04:58:19;;;;;;;68.80;37.00;;;;;;;3.95;58.29;99234.05;223572;182;138006;-73
2023/03/19 05:03:29;;;;;;;68.50;36.70;;;;;;;3.90;58.48;99236.16;223599;183;147799;-73
2023/03/19 05:08:33;;;;;;;65.40;38.20;;;;;;;3.86;58.60;99232.58;223596;182;138688;-73
2023/03/19 05:13:36;;;;;;;70.80;37.30;;;;;;;3.89;58.56;99235.13;223715;182;137192;-73
2023/03/19 05:18:39;;;;;;;73.90;36.70;;;;;;;3.90;58.82;99240.17;223698;182;146883;-73
2023/03/19 05:23:44;;;;;;;64.70;37.10;;;;;;;3.89;58.56;99235.64;223598;183;138808;-73
2023/03/19 05:28:47;;;;;;;72.00;38.10;;;;;;;3.90;58.68;99243.51;223358;182;137219;-74
2023/03/19 05:33:56;;;;;;;72.80;38.10;;;;;;;3.98;58.92;99239.21;223596;183;146958;-72
2023/03/19 05:39:00;;;;;;;76.30;42.30;;;;;;;4.23;59.66;99239.83;223573;183;139056;-71
2023/03/19 05:44:08;;;;;;;71.90;37.40;;;;;;;4.26;58.72;99232.52;223595;182;137348;-72
2023/03/19 05:49:31;;;;;;;76.20;37.60;;;;;;;4.32;59.23;99234.27;223568;183;147739;-71
2023/03/19 05:54:35;;;;;;;68.10;37.70;;;;;;;4.41;58.85;99235.35;223505;183;138189;-72
2023/03/19 05:59:47;;;;;;;67.60;37.20;;;;;;;4.54;59.12;99233.51;223617;182;137928;-71
2023/03/19 06:05:10;;;;;;;65.40;37.00;;;;;;;4.68;58.90;99225.44;223682;182;147419;-72
2023/03/19 06:10:15;;;;;;;;;;;;;;;4.85;58.59;99229.41;223600;183;138515;-73
2023/03/19 06:15:19;;;;;;;62.50;35.70;;;;;;;4.91;58.42;99235.35;223698;183;130974;-72
2023/03/19 06:20:47;;;;;;;68.90;37.10;;;;;;;5.00;58.11;99240.48;223518;184;147436;-71
2023/03/19 06:25:51;;;;;;;61.90;37.30;;;;;;;5.14;58.04;99238.23;223581;183;138408;-74
2023/03/19 06:30:55;;;;;;;63.20;36.50;;;;;;;5.30;57.56;99241.30;223675;183;137267;-71
2023/03/19 06:36:24;;;;;;;68.40;37.70;;;;;;;6.04;59.35;99243.89;223699;182;148161;-71
2023/03/19 06:41:28;;;;;;;62.10;37.40;;;;;;;6.44;56.15;99247.05;223669;183;138874;-70
2023/03/19 06:46:41;;;;;;;66.60;37.50;;;;;;;6.53;55.21;99244.73;223709;182;137204;-68
2023/03/19 06:51:44;;;;;;;68.70;40.70;;;;;;;6.68;54.90;99250.61;223627;183;148130;-70
2023/03/19 06:56:48;;;;;;;92.30;54.20;;;;;;;6.87;54.84;99254.90;223654;183;138298;-71
2023/03/19 07:01:52;;;;;;;68.40;39.50;;;;;;;7.08;54.07;99255.04;223621;183;137361;-70
2023/03/19 07:06:55;;;;;;;61.30;37.40;;;;;;;7.28;53.65;99256.80;223583;183;148288;-71
2023/03/19 07:11:59;;;;;;;60.80;34.70;;;;;;;7.52;53.57;99249.19;223710;182;138749;-71
2023/03/19 07:17:03;;;;;;;56.60;34.80;;;;;;;7.77;53.01;99243.26;223710;183;137112;-71
2023/03/19 07:22:06;;;;;;;58.10;34.00;;;;;;;8.00;52.67;99241.61;223655;183;146936;-71
2023/03/19 07:27:10;;;;;;;55.40;33.30;;;;;;;8.23;52.44;99236.42;223621;183;139774;-70
2023/03/19 07:32:13;;;;;;;60.10;34.30;;;;;;;8.44;52.24;99239.63;223700;182;137858;-71
2023/03/19 07:37:17;;;;;;;56.60;32.20;;;;;;;8.67;51.88;99241.11;222593;182;148399;-73
2023/03/19 07:42:24;;;;;;;52.20;30.20;;;;;;;8.95;53.25;99231.56;223244;183;139406;-68
2023/03/19 07:47:29;;;;;;;227.60;145.80;;;;;;;10.41;52.92;99224.70;223794;183;136948;-71
2023/03/19 07:52:38;;;;;;;60.80;38.70;;;;;;;10.69;48.91;99225.59;223554;183;147229;-71
2023/03/19 07:57:44;;;;;;;49.00;29.20;;;;;;;11.13;50.06;99223.27;223510;183;138892;-71
2023/03/19 08:02:47;;;;;;;48.50;29.00;;;;;;;11.49;46.75;99225.52;223748;183;137436;-71
2023/03/19 08:07:51;;;;;;;40.90;24.80;;;;;;;11.35;46.52;99222.61;222052;183;147496;-74
2023/03/19 08:12:54;;;;;;;36.50;22.30;;;;;;;11.35;45.99;99214.98;223713;182;138719;-71
2023/03/19 08:18:03;;;;;;;39.20;22.50;;;;;;;11.38;45.50;99209.30;223688;183;136896;-71
2023/03/19 08:23:07;;;;;;;35.30;21.40;;;;;;;11.45;45.57;99206.02;223628;183;147529;-71
2023/03/19 08:28:10;;;;;;;31.80;17.20;;;;;;;11.54;44.60;99199.75;223619;182;139553;-71
2023/03/19 08:33:14;;;;;;;53.80;36.20;;;;;;;11.66;44.34;99199.20;223610;183;137591;-73
2023/03/19 08:38:18;;;;;;;102.70;65.20;;;;;;;11.81;44.43;99198.26;223723;183;147344;-74
2023/03/19 08:43:22;;;;;;;27.90;17.50;;;;;;;11.97;44.96;99198.29;223673;182;138277;-74
2023/03/19 08:48:26;;;;;;;21.70;12.80;;;;;;;12.09;43.09;99189.81;223737;183;138046;-73
2023/03/19 08:53:30;;;;;;;22.20;13.50;;;;;;;12.21;41.33;99191.58;223745;183;148332;-74
2023/03/19 08:58:34;;;;;;;22.60;11.30;;;;;;;12.28;41.38;99190.02;223694;182;138878;-70
2023/03/19 09:03:39;;;;;;;17.50;11.60;;;;;;;12.38;41.39;99189.02;223630;183;137708;-73
2023/03/19 09:08:43;;;;;;;16.00;10.00;;;;;;;12.49;41.05;99196.28;223609;183;147167;-70
2023/03/19 09:13:46;;;;;;;15.20;9.70;;;;;;;12.65;40.65;99197.83;222031;183;139599;-73
2023/03/19 09:18:50;;;;;;;20.40;13.30;;;;;;;12.94;41.92;99203.34;223543;183;137834;-76
2023/03/19 09:23:53;;;;;;;14.60;9.10;;;;;;;13.32;39.93;99194.46;223674;182;147371;-74
2023/03/19 09:28:57;;;;;;;13.90;8.90;;;;;;;13.44;39.14;99188.60;223558;183;148840;-74
2023/03/19 09:34:01;;;;;;;15.50;9.00;;;;;;;13.55;38.78;99183.23;223523;183;137605;-70
2023/03/19 09:39:05;;;;;;;16.10;9.70;;;;;;;13.65;38.09;99185.20;223701;183;147728;-74
2023/03/19 09:44:13;;;;;;;12.70;8.00;;;;;;;13.77;37.91;99175.52;223562;182;139845;-74
2023/03/19 09:49:36;;;;;;;13.30;8.20;;;;;;;13.90;37.40;99167.61;223682;183;137619;-74
2023/03/19 09:54:47;;;;;;;14.50;8.90;;;;;;;14.09;37.14;99151.61;223634;183;147205;-74
2023/03/19 09:59:52;;;;;;;35.20;24.10;;;;;;;14.25;36.90;99156.96;223603;183;138798;-74
2023/03/19 10:04:57;;;;;;;14.20;9.20;;;;;;;14.43;36.30;99157.09;223738;182;137162;-75
2023/03/19 10:10:35;;;;;;;12.20;7.80;;;;;;;14.68;36.31;99153.95;223588;179;147654;-74
2023/03/19 10:15:43;;;;;;;15.00;8.50;;;;;;;14.88;36.77;99146.34;223592;182;138754;-74
2023/03/19 10:20:52;;;;;;;13.80;8.50;;;;;;;14.95;36.06;99145.73;223626;183;137640;-74
2023/03/19 10:25:58;;;;;;;14.50;9.00;;;;;;;15.03;35.62;99143.36;223637;182;147277;-74
2023/03/19 10:31:07;;;;;;;11.90;7.90;;;;;;;15.09;36.04;99134.64;223642;182;138983;-73
2023/03/19 10:36:11;;;;;;;201.00;133.00;;;;;;;15.26;35.27;99127.41;223701;182;137331;-73
2023/03/19 10:41:43;;;;;;;43.50;29.80;;;;;;;15.49;34.26;99126.79;223611;183;147589;-75
2023/03/19 10:46:46;;;;;;;12.60;6.40;;;;;;;15.85;34.67;99113.73;223687;183;138833;-74
2023/03/19 10:51:50;;;;;;;9.50;6.20;;;;;;;16.14;34.17;99106.12;223605;182;137654;-74
2023/03/19 10:57:23;;;;;;;11.00;6.40;;;;;;;16.41;33.80;99099.72;223914;183;147296;-74
2023/03/19 11:02:30;;;;;;;288.00;220.10;;;;;;;16.58;33.45;99091.96;223622;182;139127;-75
2023/03/19 11:07:36;;;;;;;11.80;8.90;;;;;;;16.72;32.01;99078.88;223673;183;138000;-74
2023/03/19 11:12:39;;;;;;;9.50;6.40;;;;;;;16.89;30.93;99076.80;223640;183;147584;-74
2023/03/19 11:17:56;;;;;;;15.60;10.90;;;;;;;16.89;30.97;99076.28;223615;183;138209;-67
2023/03/19 11:23:01;;;;;;;9.60;5.70;;;;;;;17.17;35.25;99079.14;223646;183;137828;-73
2023/03/19 11:28:08;;;;;;;8.80;5.40;;;;;;;17.31;30.67;99076.77;223622;183;147610;-73
2023/03/19 11:33:37;;;;;;;8.90;5.90;;;;;;;16.95;28.34;99067.65;223698;182;138368;-73
2023/03/19 11:38:57;;;;;;;19.40;11.40;;;;;;;16.82;29.60;99057.50;223684;182;136982;-72
2023/03/19 11:44:05;;;;;;;9.00;5.90;;;;;;;16.90;30.51;99052.30;223460;182;150122;-75
2023/03/19 11:49:21;;;;;;;9.20;6.70;;;;;;;16.88;31.39;99048.56;223640;182;138379;-75
2023/03/19 11:54:34;;;;;;;;;;;;;;;16.95;30.62;99039.51;223574;183;138845;-76
2023/03/19 11:59:58;;;;;;;18.60;12.70;;;;;;;17.11;29.52;99021.20;223711;183;147095;-75
2023/03/19 12:05:35;;;;;;;10.20;6.50;;;;;;;17.30;29.75;99017.37;223557;182;139093;-73
2023/03/19 12:10:58;;;;;;;11.10;7.20;;;;;;;17.57;31.29;99020.88;223608;183;137264;-74
2023/03/19 12:16:21;;;;;;;12.20;7.80;;;;;;;17.75;30.88;99021.71;223489;182;146749;-73
2023/03/19 12:22:12;;;;;;;13.80;7.70;;;;;;;18.00;31.16;99011.66;223544;183;157375;-72
2023/03/19 12:27:44;;;;;;;16.60;7.50;;;;;;;18.31;30.95;99010.09;223603;183;137723;-72
2023/03/19 12:32:52;;;;;;;14.20;7.10;;;;;;;18.47;30.05;98998.33;223712;183;147568;-71
2023/03/19 12:38:23;;;;;;;8.80;5.50;;;;;;;18.59;30.05;98991.21;223524;183;138418;-72
2023/03/19 12:43:53;;;;;;;8.20;5.10;;;;;;;18.60;29.71;98981.75;223571;183;137907;-72
2023/03/19 12:49:23;;;;;;;20.00;7.70;;;;;;;18.57;29.72;98972.85;223530;183;150619;-71
2023/03/19 12:54:33;;;;;;;16.50;12.20;;;;;;;18.63;30.35;98968.89;223577;183;139813;-69
2023/03/19 12:59:42;;;;;;;9.50;6.40;;;;;;;18.81;30.39;98963.53;223575;183;137292;-70
2023/03/19 13:05:10;;;;;;;10.80;6.50;;;;;;;18.91;29.72;98960.81;223544;182;147679;-69
2023/03/19 13:10:21;;;;;;;8.70;5.90;;;;;;;19.08;29.74;98952.52;223574;182;140337;-70
2023/03/19 13:15:33;;;;;;;26.80;13.70;;;;;;;19.24;31.05;98948.21;223586;183;138943;-64
2023/03/19 13:20:54;;;;;;;16.00;10.10;;;;;;;19.69;36.05;98953.05;223565;182;147720;-72
2023/03/19 13:26:00;;;;;;;202.10;142.50;;;;;;;20.09;34.33;98951.33;223579;183;138730;-75
2023/03/19 13:31:06;;;;;;;92.00;69.10;;;;;;;20.20;33.33;98941.53;223578;183;138848;-72
2023/03/19 13:36:13;;;;;;;12.80;7.90;;;;;;;20.19;32.18;98938.79;223484;182;147242;-71
2023/03/19 13:41:32;;;;;;;8.90;5.30;;;;;;;20.21;30.26;98935.16;223642;183;138747;-68
2023/03/19 13:46:39;;;;;;;7.10;4.70;;;;;;;20.06;28.43;98932.70;223618;183;137603;-68
2023/03/19 13:51:43;;;;;;;6.60;4.90;;;;;;;19.94;27.92;98930.14;223629;182;147534;-67
2023/03/19 13:57:06;;;;;;;9.50;4.90;;;;;;;19.78;27.71;98932.71;223576;183;139664;-67
2023/03/19 14:02:21;;;;;;;6.80;4.80;;;;;;;19.64;27.37;98927.80;223583;183;137483;-67
2023/03/19 14:07:36;;;;;;;11.80;6.80;;;;;;;19.34;26.54;98924.19;223709;182;148038;-70
2023/03/19 14:12:42;;;;;;;40.60;28.20;;;;;;;19.08;28.98;98925.88;223633;182;139138;-69
2023/03/19 14:17:49;;;;;;;11.50;6.00;;;;;;;18.82;28.00;98922.00;223714;183;138364;-69
2023/03/19 14:23:20;;;;;;;6.80;5.00;;;;;;;18.56;28.12;98921.76;223484;182;148573;-69
2023/03/19 14:28:48;;;;;;;7.00;5.30;;;;;;;18.33;28.24;98922.60;223580;182;138813;-68
2023/03/19 14:34:11;;;;;;;7.20;4.60;;;;;;;18.17;27.53;98921.77;223576;183;136917;-76
2023/03/19 14:39:21;;;;;;;8.00;5.10;;;;;;;17.99;27.99;98917.93;222990;182;147738;-73
2023/03/19 14:44:39;;;;;;;8.20;5.10;;;;;;;17.80;28.72;98920.25;223450;182;138282;-71
2023/03/19 14:50:15;;;;;;;10.50;5.50;;;;;;;17.67;27.81;98918.29;223640;183;138027;-68
2023/03/19 14:55:20;;;;;;;19.60;13.20;;;;;;;17.55;28.81;98919.30;223518;183;148067;-64
2023/03/19 15:00:23;;;;;;;226.60;171.40;;;;;;;17.54;31.40;98921.05;223516;183;139474;-68
2023/03/19 15:05:32;;;;;;;9.30;5.80;;;;;;;17.38;29.98;98917.27;223523;183;138765;-70
2023/03/19 15:11:17;;;;;;;10.80;5.50;;;;;;;17.24;29.26;98920.76;223416;182;147644;-70
2023/03/19 15:16:51;;;;;;;9.00;4.80;;;;;;;17.10;28.99;98917.41;223388;183;140011;-70
2023/03/19 15:22:21;;;;;;;5.70;4.20;;;;;;;16.96;29.16;98921.45;223528;182;137424;-70
2023/03/19 15:27:26;;;;;;;7.30;4.30;;;;;;;16.83;29.17;98923.17;223504;183;147179;-70
2023/03/19 15:32:33;;;;;;;6.30;4.40;;;;;;;16.73;29.30;98916.01;223436;183;139867;-72
2023/03/19 15:38:01;;;;;;;8.10;4.20;;;;;;;16.64;29.66;98913.16;223519;180;136661;-72
2023/03/19 15:43:04;;;;;;;7.80;5.40;;;;;;;16.57;29.49;98912.80;223492;183;147431;-75
2023/03/19 15:48:18;;;;;;;32.60;23.70;;;;;;;16.51;29.95;98916.85;223555;183;138942;-72
2023/03/19 15:53:25;;;;;;;10.90;5.60;;;;;;;16.41;30.31;98924.42;223527;183;137958;-71
2023/03/19 15:58:38;;;;;;;8.00;5.50;;;;;;;16.26;30.28;98927.83;223529;182;147458;-71
2023/03/19 16:03:44;;;;;;;12.80;5.80;;;;;;;16.16;30.57;98934.81;223401;183;138864;-73
2023/03/19 16:08:54;;;;;;;8.50;5.60;;;;;;;16.02;30.74;98934.54;223452;183;137743;-73
2023/03/19 16:13:58;;;;;;;9.40;5.10;;;;;;;15.91;31.14;98940.39;223440;182;150443;-75
2023/03/19 16:19:04;;;;;;;9.90;4.80;;;;;;;15.77;31.21;98937.09;223449;182;138727;-74
2023/03/19 16:24:23;;;;;;;9.00;5.40;;;;;;;15.70;31.06;98945.73;223568;182;136865;-71
2023/03/19 16:29:30;;;;;;;8.80;5.30;;;;;;;15.57;31.84;98948.94;223606;183;147037;-71
2023/03/19 16:34:45;;;;;;;8.90;5.70;;;;;;;15.40;31.98;98954.08;223491;178;138118;-71
2023/03/19 16:40:20;;;;;;;8.60;4.80;;;;;;;15.28;31.89;98959.38;223579;183;136867;-71
2023/03/19 16:45:26;;;;;;;7.10;4.80;;;;;;;15.15;32.16;98965.68;223570;183;147602;-70
2023/03/19 16:50:34;;;;;;;138.80;109.70;;;;;;;15.03;32.79;98960.94;223535;182;139499;-70
2023/03/19 16:55:37;;;;;;;19.70;11.00;;;;;;;14.99;33.21;98955.56;223582;182;137980;-73
2023/03/19 17:00:42;;;;;;;12.10;6.60;;;;;;;14.88;33.01;98955.48;223510;182;147605;-71
2023/03/19 17:05:47;;;;;;;12.90;8.40;;;;;;;14.71;32.79;98969.39;223631;183;138832;-71
2023/03/19 17:10:52;;;;;;;17.70;10.50;;;;;;;14.54;33.75;98971.48;223547;183;137385;-71
2023/03/19 17:15:58;;;;;;;;;;;;;;;14.41;34.05;98980.88;223526;183;147357;-71
2023/03/19 17:21:30;;;;;;;27.30;17.60;;;;;;;14.25;34.31;98982.86;223642;182;141129;-71
2023/03/19 17:26:33;;;;;;;32.90;17.10;;;;;;;14.13;33.96;98989.83;223606;182;137425;-71
2023/03/19 17:31:36;;;;;;;63.80;44.40;;;;;;;14.05;34.64;98988.10;223528;182;147980;-70
2023/03/19 17:36:43;;;;;;;31.20;17.30;;;;;;;14.01;34.95;98988.51;223563;183;139016;-72
2023/03/19 17:41:47;;;;;;;35.30;18.40;;;;;;;13.85;35.58;98984.30;223646;183;137236;-71
2023/03/19 17:46:54;;;;;;;30.90;17.60;;;;;;;13.69;35.93;98992.30;222515;183;147187;-73
2023/03/19 17:51:59;;;;;;;29.10;15.80;;;;;;;13.58;36.32;98992.42;222466;179;140558;-73
2023/03/19 17:57:02;;;;;;;23.60;14.10;;;;;;;13.45;36.86;98993.42;223489;182;137862;-72
2023/03/19 18:02:27;;;;;;;22.40;13.50;;;;;;;13.33;37.27;98995.35;223530;183;147351;-70
2023/03/19 18:07:31;;;;;;;24.20;13.50;;;;;;;13.20;37.87;98997.88;223562;183;139580;-71
2023/03/19 18:12:35;;;;;;;20.20;12.90;;;;;;;13.07;37.81;98992.98;223541;182;137836;-71
2023/03/19 18:17:42;;;;;;;23.30;12.80;;;;;;;12.95;37.60;98992.37;223760;183;147223;-72
2023/03/19 18:22:46;;;;;;;41.90;16.10;;;;;;;12.83;37.96;98999.86;223552;182;139125;-71
2023/03/19 18:27:49;;;;;;;39.20;16.50;;;;;;;12.72;38.84;99002.60;223596;182;136919;-71
2023/03/19 18:32:59;;;;;;;28.90;15.40;;;;;;;12.64;39.12;99000.20;223508;183;148273;-71
2023/03/19 18:38:04;;;;;;;24.80;14.10;;;;;;;12.53;39.07;99003.41;223610;183;139294;-70
2023/03/19 18:43:10;;;;;;;28.20;14.70;;;;;;;12.43;39.62;99009.10;223482;183;138033;-70
2023/03/19 18:48:26;;;;;;;29.20;15.00;;;;;;;12.33;40.39;99012.15;223633;183;147910;-70
2023/03/19 18:53:30;;;;;;;34.60;16.30;;;;;;;12.20;41.84;99021.92;223550;183;139375;-71
2023/03/19 18:58:33;;;;;;;29.50;15.30;;;;;;;12.09;41.50;99024.29;223598;182;138866;-71
2023/03/19 19:03:37;;;;;;;30.70;14.50;;;;;;;12.00;41.46;99018.45;223658;183;147021;-71
2023/03/19 19:08:40;;;;;;;109.10;69.70;;;;;;;11.95;42.49;99021.84;223531;182;267253;-71
2023/03/19 19:13:51;;;;;;;31.30;14.60;;;;;;;12.00;43.45;99019.56;223445;182;142041;-70
2023/03/19 19:18:58;;;;;;;27.60;13.90;;;;;;;11.86;43.44;99021.92;223672;182;147225;-71
2023/03/19 19:24:02;;;;;;;33.00;14.70;;;;;;;11.68;43.81;99026.52;223623;182;139658;-71
2023/03/19 19:29:05;;;;;;;41.00;18.10;;;;;;;11.53;44.55;99028.73;223659;182;137759;-71
2023/03/19 19:34:14;;;;;;;48.40;20.80;;;;;;;11.40;45.03;99029.60;223631;182;147389;-71
2023/03/19 19:39:18;;;;;;;46.60;22.20;;;;;;;11.26;45.59;99035.28;223535;183;138448;-70
2023/03/19 19:44:25;;;;;;;53.10;24.30;;;;;;;11.16;45.94;99029.94;223656;182;137976;-71
2023/03/19 19:49:28;;;;;;;44.40;24.90;;;;;;;11.06;46.13;99032.52;223461;183;147658;-71
2023/03/19 19:54:31;;;;;;;47.00;23.80;;;;;;;10.95;46.47;99033.37;223643;183;139165;-70
2023/03/19 19:59:35;;;;;;;44.70;24.30;;;;;;;10.84;46.97;99037.60;223732;182;137818;-70
2023/03/19 20:04:38;;;;;;;48.10;25.60;;;;;;;10.72;47.28;99036.11;223500;182;147638;-73
2023/03/19 20:09:42;;;;;;;47.30;26.40;;;;;;;10.59;47.34;99035.30;223573;182;139031;-66
2023/03/19 20:14:46;;;;;;;83.10;48.70;;;;;;;10.54;48.48;99033.64;223528;183;138405;-72
2023/03/19 20:19:50;;;;;;;47.20;26.70;;;;;;;10.60;47.80;99034.85;223570;183;147371;-71
2023/03/19 20:25:00;;;;;;;41.90;25.40;;;;;;;10.49;47.67;99033.95;223569;183;138215;-69
2023/03/19 20:30:21;;;;;;;40.90;24.60;;;;;;;10.37;48.33;99035.06;223612;182;137700;-70
2023/03/19 20:35:30;;;;;;;43.50;25.90;;;;;;;10.26;48.90;99036.06;223645;183;148168;-71
2023/03/19 20:40:42;;;;;;;50.50;26.40;;;;;;;10.17;49.26;99038.71;223663;182;138701;-70
2023/03/19 20:45:46;;;;;;;53.30;28.10;;;;;;;10.09;49.17;99038.49;223583;183;137544;-70
2023/03/19 20:50:49;;;;;;;49.20;28.30;;;;;;;10.03;49.10;99038.84;223530;183;147700;-71
2023/03/19 20:55:53;;;;;;;46.10;27.60;;;;;;;9.98;49.26;99032.24;223656;183;138789;-71
2023/03/19 21:00:57;;;;;;;51.50;28.30;;;;;;;9.89;49.60;99029.58;223537;182;137755;-73
2023/03/19 21:06:11;;;;;;;52.40;29.80;;;;;;;9.84;50.00;99026.88;223611;183;147775;-72
2023/03/19 21:11:17;;;;;;;58.10;29.50;;;;;;;9.78;50.50;99031.13;223390;182;138566;-73
2023/03/19 21:16:24;;;;;;;49.10;28.40;;;;;;;9.73;50.60;99033.57;223581;182;137738;-71
2023/03/19 21:21:34;;;;;;;48.60;27.70;;;;;;;9.67;50.74;99039.71;223602;182;148841;-70
2023/03/19 21:26:40;;;;;;;52.40;29.60;;;;;;;9.64;50.70;99038.65;223641;183;138429;-69
2023/03/19 21:31:46;;;;;;;47.40;28.70;;;;;;;9.61;50.90;99043.11;223728;183;137198;-72
2023/03/19 21:36:50;;;;;;;51.60;29.40;;;;;;;9.58;51.22;99037.81;223532;182;147377;-71
2023/03/19 21:41:53;;;;;;;52.80;29.50;;;;;;;9.52;51.43;99040.78;223572;183;138384;-71
2023/03/19 21:46:57;;;;;;;52.30;30.20;;;;;;;9.48;51.59;99040.45;220869;183;137738;-74
2023/03/19 21:52:00;;;;;;;52.10;28.90;;;;;;;9.48;51.44;99039.61;223570;183;147692;-74
2023/03/19 21:57:04;;;;;;;54.70;29.20;;;;;;;9.39;51.57;99043.80;223549;182;138773;-72
2023/03/19 22:02:38;;;;;;;51.50;28.60;;;;;;;9.33;51.81;99036.41;223573;183;137619;-72
2023/03/19 22:07:41;;;;;;;54.60;30.40;;;;;;;9.28;52.21;99034.75;223577;182;146911;-73
2023/03/19 22:12:46;;;;;;;58.10;28.50;;;;;;;9.24;52.07;99038.67;223602;182;138988;-72
2023/03/19 22:17:50;;;;;;;40.00;22.50;;;;;;;9.26;51.58;99040.69;222660;183;138309;-72
2023/03/19 22:22:55;;;;;;;40.70;21.80;;;;;;;9.46;50.39;99038.13;223560;183;147601;-73
2023/03/19 22:27:58;;;;;;;40.00;23.10;;;;;;;9.62;50.50;99029.60;223640;183;140854;-72
2023/03/19 22:33:13;;;;;;;47.60;25.10;;;;;;;9.72;49.17;99024.38;223616;182;137046;-73
2023/03/19 22:38:18;;;;;;;38.60;22.00;;;;;;;9.78;49.19;99027.25;223630;182;147276;-74
2023/03/19 22:43:34;;;;;;;46.90;24.00;;;;;;;9.89;48.15;99027.83;223709;183;140460;-75
2023/03/19 22:48:38;;;;;;;45.50;24.40;;;;;;;9.95;48.74;99022.84;223679;182;137105;-75
2023/03/19 22:53:42;;;;;;;54.30;26.70;;;;;;;9.90;49.95;99022.98;223055;183;147497;-75
2023/03/19 22:58:46;;;;;;;57.60;26.50;;;;;;;9.70;50.55;99031.93;223560;183;139096;-75
2023/03/19 23:03:50;;;;;;;49.50;26.70;;;;;;;9.58;51.08;99034.75;223535;183;137875;-75
2023/03/19 23:08:56;;;;;;;55.40;28.20;;;;;;;9.54;51.06;99030.02;223684;182;147596;-73
2023/03/19 23:14:00;;;;;;;57.00;29.50;;;;;;;9.42;51.81;99031.07;223670;183;138242;-73
2023/03/19 23:19:04;;;;;;;49.50;27.90;;;;;;;9.33;51.92;99028.05;223719;183;137458;-73
2023/03/19 23:24:11;;;;;;;49.60;27.80;;;;;;;9.23;52.41;99029.35;223727;183;147898;-72
2023/03/19 23:29:21;;;;;;;45.70;27.20;;;;;;;9.16;52.74;99028.31;223630;182;140476;-71
2023/03/19 23:34:27;;;;;;;56.40;29.40;;;;;;;9.18;52.19;99027.85;223679;183;136977;-72
2023/03/19 23:39:30;;;;;;;44.00;25.40;;;;;;;9.22;51.55;99025.48;223601;183;146789;-73